Time;durP1;ratioP1;P1;durP2;ratioP2;P2;SDS_P1;SDS_P2;PMS_P1;PMS_P2;Temp;Humidity;BMP_temperature;BMP_pressure;BME280_temperature;BME280_humidity;BME280_pressure;Samples;Min_cycle;Max_cycle;Signal;HPM_P1;HPM_P2
2022/10/26 00:02:15;;;;;;;;;;;;;;;19.88;44.90;99602.81;4428357;32;32533;-92
2022/10/26 00:04:44;;;;;;;;;;;;;;;19.79;44.90;99597.75;4444883;32;33001;-94
2022/10/26 00:07:11;;;;;;;;;;;;;;;20.10;44.08;99594.53;4429907;32;33751;-93
2022/10/26 00:09:38;;;;;;;;;;;;;;;20.23;43.40;99592.53;4450299;32;33051;-94
2022/10/26 00:12:06;;;;;;;;;;;;;;;20.17;43.50;99601.41;4444910;32;33376;-94
2022/10/26 00:14:33;;;;;;;;;;;;;;;20.28;43.25;99601.22;4430524;32;33093;-95
2022/10/26 00:17:00;;;;;;;;;;;;;;;20.22;43.28;99598.69;4457118;32;33572;-94
2022/10/26 00:19:28;;;;;;;;;;;;;;;20.24;43.29;99591.66;4434157;32;34186;-93
2022/10/26 00:21:56;;;;;;;;;;;;;;;20.07;43.68;99600.72;4450539;32;32933;-94
2022/10/26 00:24:23;;;;;;;;;;;;;;;19.92;43.84;99606.25;4439766;32;32741;-94
2022/10/26 00:26:51;;;;;;;;;;;;;;;20.09;43.47;99600.72;4454512;32;34439;-95
2022/10/26 00:29:18;;;;;;;;;;;;;;;20.17;43.33;99607.56;4428758;32;32887;-94
2022/10/26 00:31:45;;;;;;;;;;;;;;;20.21;43.17;99607.50;4441439;32;31534;-93
2022/10/26 00:34:13;;;;;;;;;;;;;;;20.26;43.15;99601.22;4429689;32;34423;-93
2022/10/26 00:36:41;;;;;;;;;;;;;;;19.87;44.24;99602.88;4441389;32;33955;-94
2022/10/26 00:39:09;;;;;;;;;;;;;;;19.87;44.17;99600.22;4454601;32;34211;-94
2022/10/26 00:41:37;;;;;;;;;;;;;;;20.08;43.81;99597.22;4440357;32;32245;-93
2022/10/26 00:44:23;;;;;;;;;;;;;;;20.18;43.52;99597.87;4440822;32;34733;-93
2022/10/26 00:46:51;;;;;;;;;;;;;;;20.03;43.87;99596.41;4453712;32;34297;-94
2022/10/26 00:49:18;;;;;;;;;;;;;;;20.13;43.64;99595.34;4428334;32;33518;-92
2022/10/26 00:51:52;;;;;;;;;;;;;;;20.27;43.36;99592.47;4447651;32;32348;-93
2022/10/26 00:54:19;;;;;;;;;;;;;;;20.20;43.82;99593.47;4428508;32;32843;-92
2022/10/26 00:56:47;;;;;;;;;;;;;;;20.22;43.86;99581.13;4443483;32;34051;-94
2022/10/26 00:59:15;;;;;;;;;;;;;;;20.25;44.10;99593.38;4430386;32;33160;-93
2022/10/26 01:01:43;;;;;;;;;;;;;;;20.25;44.04;99588.97;4444324;32;33445;-93
2022/10/26 01:04:11;;;;;;;;;;;;;;;20.32;44.03;99581.81;4427731;32;33135;-95
2022/10/26 01:06:39;;;;;;;;;;;;;;;20.39;43.78;99589.56;4428776;32;35130;-94
2022/10/26 01:09:06;;;;;;;;;;;;;;;20.28;44.32;99593.31;4466356;32;34708;-93
2022/10/26 01:11:33;;;;;;;;;;;;;;;20.36;44.21;99586.12;4441274;32;32785;-94
2022/10/26 01:14:01;;;;;;;;;;;;;;;20.47;44.17;99589.41;4427836;32;33695;-95
2022/10/26 01:16:32;;;;;;;;;;;;;;;20.55;44.04;99584.88;4439536;32;33479;-94
2022/10/26 01:19:19;;;;;;;;;;;;;;;20.65;43.82;99589.06;4441284;32;33637;-94
2022/10/26 01:21:51;;;;;;;;;;;;;;;20.57;44.00;99582.19;4442938;32;32192;-94
2022/10/26 01:24:38;;;;;;;;;;;;;;;20.65;43.94;99582.94;4451038;32;32860;-93
2022/10/26 01:27:11;;;;;;;;;;;;;;;20.65;43.81;99583.78;4448019;32;33828;-95
2022/10/26 01:29:51;;;;;;;;;;;;;;;20.71;43.78;99590.69;4452415;32;34281;-94
2022/10/26 01:32:23;;;;;;;;;;;;;;;20.45;44.22;99579.78;4456745;32;32037;-94
2022/10/26 01:34:59;;;;;;;;;;;;;;;20.64;44.07;99575.91;4464170;32;32962;-94
2022/10/26 01:37:27;;;;;;;;;;;;;;;20.59;44.18;99578.62;4441027;32;33378;-94
2022/10/26 01:40:04;;;;;;;;;;;;;;;20.69;43.90;99579.31;4427630;32;32936;-94
2022/10/26 01:42:31;;;;;;;;;;;;;;;20.61;44.15;99576.84;4434130;32;32354;-93
2022/10/26 01:45:00;;;;;;;;;;;;;;;20.72;43.97;99578.38;4443929;32;33395;-94
2022/10/26 01:47:27;;;;;;;;;;;;;;;20.41;44.85;99574.59;4443260;32;33299;-94
2022/10/26 01:49:55;;;;;;;;;;;;;;;20.67;44.31;99572.34;4448998;32;33331;-93
2022/10/26 01:52:22;;;;;;;;;;;;;;;20.75;44.06;99579.16;4459810;32;32060;-93
2022/10/26 01:54:50;;;;;;;;;;;;;;;20.68;44.31;99574.06;4443929;32;35024;-93
2022/10/26 01:57:18;;;;;;;;;;;;;;;20.58;44.41;99569.00;4450327;32;34130;-94
2022/10/26 01:59:52;;;;;;;;;;;;;;;20.56;44.84;99573.44;4428709;32;32749;-94
2022/10/26 02:02:38;;;;;;;;;;;;;;;20.51;44.81;99575.31;4454074;32;31849;-94
2022/10/26 02:05:15;;;;;;;;;;;;;;;20.63;44.65;99569.78;4459395;32;33407;-94
2022/10/26 02:07:50;;;;;;;;;;;;;;;20.51;44.90;99570.03;4446647;32;34983;-94
2022/10/26 02:10:18;;;;;;;;;;;;;;;20.74;44.43;99569.53;4452931;32;33080;-93
2022/10/26 02:12:57;;;;;;;;;;;;;;;20.83;44.18;99565.81;4440220;32;32861;-93
2022/10/26 02:15:26;;;;;;;;;;;;;;;20.73;44.32;99569.59;4449410;32;34936;-93
2022/10/26 02:17:58;;;;;;;;;;;;;;;20.89;43.93;99561.28;4443381;32;34449;-94
2022/10/26 02:20:27;;;;;;;;;;;;;;;20.87;43.86;99571.00;4429392;32;32713;-91
2022/10/26 02:22:55;;;;;;;;;;;;;;;20.85;43.82;99559.63;4438172;32;33117;-94
2022/10/26 02:25:26;;;;;;;;;;;;;;;20.94;43.67;99569.09;4438434;32;34739;-94
2022/10/26 02:27:58;;;;;;;;;;;;;;;20.89;43.76;99563.06;4429620;32;33744;-94
2022/10/26 02:30:26;;;;;;;;;;;;;;;20.69;44.24;99563.50;4447462;32;33421;-94
2022/10/26 02:32:54;;;;;;;;;;;;;;;20.74;44.32;99568.69;4431423;32;32919;-92
2022/10/26 02:35:23;;;;;;;;;;;;;;;20.75;44.49;99568.63;4448413;32;33993;-93
2022/10/26 02:37:51;;;;;;;;;;;;;;;20.96;43.98;99566.44;4441056;32;34255;-94
2022/10/26 02:40:20;;;;;;;;;;;;;;;20.86;44.13;99573.66;4435849;32;34442;-94
2022/10/26 02:42:47;;;;;;;;;;;;;;;20.79;44.26;99575.56;4433495;32;32347;-93
2022/10/26 02:45:16;;;;;;;;;;;;;;;20.88;44.06;99583.28;4450328;32;33309;-93
2022/10/26 02:47:44;;;;;;;;;;;;;;;20.97;43.83;99587.47;4427715;32;33504;-94
2022/10/26 02:50:11;;;;;;;;;;;;;;;20.89;43.95;99582.37;4440151;32;33213;-93
2022/10/26 02:52:45;;;;;;;;;;;;;;;21.01;43.69;99583.00;4450939;32;32681;-93
2022/10/26 02:55:31;;;;;;;;;;;;;;;20.96;43.71;99592.78;4442903;32;34665;-94
2022/10/26 02:58:00;;;;;;;;;;;;;;;20.97;43.75;99583.97;4440465;32;33284;-94
2022/10/26 03:00:27;;;;;;;;;;;;;;;20.91;43.87;99603.44;4440478;32;33536;-91
2022/10/26 03:02:56;;;;;;;;;;;;;;;20.71;44.90;99590.69;4429866;32;32530;-93
2022/10/26 03:05:24;;;;;;;;;;;;;;;20.79;44.95;99594.00;4444999;32;33939;-93
2022/10/26 03:07:52;;;;;;;;;;;;;;;20.72;45.34;99592.44;4428040;32;33328;-93
2022/10/26 03:10:19;;;;;;;;;;;;;;;20.41;46.67;99593.03;4443305;32;33001;-93
2022/10/26 03:12:46;;;;;;;;;;;;;;;20.39;46.90;99596.59;4435644;32;32464;-93
2022/10/26 03:15:15;;;;;;;;;;;;;;;20.50;46.53;99584.13;4430301;32;33968;-94
2022/10/26 03:17:42;;;;;;;;;;;;;;;20.50;46.60;99589.37;4439959;32;34088;-93
2022/10/26 03:20:09;;;;;;;;;;;;;;;20.31;47.10;99598.53;4438531;32;33075;-93
2022/10/26 03:22:37;;;;;;;;;;;;;;;20.35;47.16;99597.56;4422513;32;32553;-93
2022/10/26 03:25:05;;;;;;;;;;;;;;;20.40;47.01;99598.34;4437304;32;33658;-93
2022/10/26 03:27:33;;;;;;;;;;;;;;;20.71;46.35;99597.72;4440239;32;33904;-93
2022/10/26 03:30:01;;;;;;;;;;;;;;;20.78;45.98;99600.19;4444102;32;34517;-90
2022/10/26 03:32:28;;;;;;;;;;;;;;;20.61;46.13;99599.69;4446209;32;33325;-93
2022/10/26 03:34:55;;;;;;;;;;;;;;;20.69;46.03;99605.66;4464056;32;34893;-93
2022/10/26 03:37:23;;;;;;;;;;;;;;;20.64;46.13;99604.87;4449446;32;34162;-93
2022/10/26 03:39:50;;;;;;;;;;;;;;;20.69;46.00;99600.41;4443179;32;33566;-92
2022/10/26 03:42:17;;;;;;;;;;;;;;;20.85;45.65;99601.78;4435110;32;32969;-94
2022/10/26 03:44:47;;;;;;;;;;;;;;;20.65;46.01;99604.00;4427196;32;33482;-93
2022/10/26 03:47:14;;;;;;;;;;;;;;;20.94;45.34;99607.75;4437839;32;33689;-94
2022/10/26 03:49:41;;;;;;;;;;;;;;;21.00;45.07;99610.25;4452062;32;32754;-94
2022/10/26 03:52:09;;;;;;;;;;;;;;;21.06;44.64;99607.47;4416352;32;32133;-94
2022/10/26 03:54:36;;;;;;;;;;;;;;;21.11;44.13;99600.34;4463103;32;33347;-93
2022/10/26 03:57:03;;;;;;;;;;;;;;;21.09;43.79;99616.19;4441900;32;36310;-92
2022/10/26 03:59:31;;;;;;;;;;;;;;;20.60;44.90;99605.84;4449570;32;33248;-94
2022/10/26 04:01:58;;;;;;;;;;;;;;;20.84;44.55;99612.37;4443002;32;32305;-94
2022/10/26 04:04:25;;;;;;;;;;;;;;;20.65;45.12;99612.78;4427405;32;33257;-94
2022/10/26 04:06:53;;;;;;;;;;;;;;;20.59;45.96;99619.94;4438819;32;33807;-93
2022/10/26 04:09:20;;;;;;;;;;;;;;;20.82;45.52;99622.94;4447985;32;33269;-94
2022/10/26 04:11:48;;;;;;;;;;;;;;;20.84;45.39;99615.88;4441210;32;32193;-94
2022/10/26 04:14:15;;;;;;;;;;;;;;;20.65;46.07;99617.19;4427716;32;34068;-95
2022/10/26 04:16:43;;;;;;;;;;;;;;;20.78;45.83;99620.41;4427142;32;34684;-93
2022/10/26 04:19:10;;;;;;;;;;;;;;;20.75;45.93;99621.31;4440799;32;34826;-92
2022/10/26 04:21:38;;;;;;;;;;;;;;;20.71;45.63;99618.81;4443179;32;33077;-93
2022/10/26 04:24:05;;;;;;;;;;;;;;;21.07;44.13;99612.72;4459523;32;33777;-93
2022/10/26 04:26:33;;;;;;;;;;;;;;;20.89;44.34;99610.50;4420432;32;34813;-93
2022/10/26 04:29:03;;;;;;;;;;;;;;;20.84;44.35;99615.88;4428735;32;34267;-94
2022/10/26 04:31:31;;;;;;;;;;;;;;;20.73;44.11;99617.88;4441801;32;33572;-93
2022/10/26 04:34:00;;;;;;;;;;;;;;;20.75;44.02;99616.06;4432956;32;34092;-93
2022/10/26 04:36:27;;;;;;;;;;;;;;;20.71;43.96;99614.41;4436970;32;34377;-94
2022/10/26 04:38:54;;;;;;;;;;;;;;;20.78;43.46;99608.09;4426499;32;33339;-93
2022/10/26 04:41:21;;;;;;;;;;;;;;;20.62;43.27;99604.94;4420765;32;32781;-93
2022/10/26 04:43:49;;;;;;;;;;;;;;;20.56;43.30;99604.19;4436937;32;34244;-92
2022/10/26 04:46:16;;;;;;;;;;;;;;;20.55;43.23;99603.31;4436989;32;34856;-94
2022/10/26 04:48:44;;;;;;;;;;;;;;;20.61;42.89;99607.59;4453623;32;32406;-93
2022/10/26 04:51:11;;;;;;;;;;;;;;;20.58;42.71;99602.41;4413531;32;32730;-94
2022/10/26 04:53:38;;;;;;;;;;;;;;;20.51;42.82;99606.91;4416526;32;33236;-94
2022/10/26 04:56:07;;;;;;;;;;;;;;;20.56;42.42;99601.53;4437508;32;34184;-93
2022/10/26 04:58:35;;;;;;;;;;;;;;;20.35;42.38;99611.59;4430991;32;33117;-95
2022/10/26 05:01:02;;;;;;;;;;;;;;;20.38;42.32;99606.28;4441153;32;33792;-96
2022/10/26 05:03:51;;;;;;;;;;;;;;;20.12;42.73;99603.28;4449964;32;33407;-96
2022/10/26 05:06:18;;;;;;;;;;;;;;;20.02;42.93;99604.34;4439607;32;33345;-95
2022/10/26 05:08:46;;;;;;;;;;;;;;;20.26;42.20;99603.88;4458033;32;33679;-96
2022/10/26 05:11:13;;;;;;;;;;;;;;;19.80;43.06;99604.72;4467666;32;32380;-96
2022/10/26 05:13:41;;;;;;;;;;;;;;;19.81;43.12;99609.12;4467835;32;34023;-96
2022/10/26 05:16:08;;;;;;;;;;;;;;;19.98;42.68;99605.31;4468606;32;35272;-95
2022/10/26 05:18:35;;;;;;;;;;;;;;;20.03;42.56;99604.31;4468719;32;34354;-96
2022/10/26 05:21:03;;;;;;;;;;;;;;;20.00;42.71;99606.13;4453814;32;33792;-96
2022/10/26 05:23:31;;;;;;;;;;;;;;;19.88;43.24;99613.34;4465791;32;34179;-94
2022/10/26 05:25:58;;;;;;;;;;;;;;;20.03;43.18;99614.84;4467319;32;34804;-95
2022/10/26 05:28:25;;;;;;;;;;;;;;;20.07;43.31;99620.91;4468909;32;34854;-96
2022/10/26 05:30:53;;;;;;;;;;;;;;;19.89;43.62;99619.50;4468768;32;33245;-96
2022/10/26 05:33:20;;;;;;;;;;;;;;;19.89;43.48;99616.88;4468680;32;35619;-96
2022/10/26 05:35:47;;;;;;;;;;;;;;;19.90;43.49;99619.47;4464712;32;35185;-95
2022/10/26 05:38:15;;;;;;;;;;;;;;;20.02;43.35;99628.03;4446408;32;33381;-96
2022/10/26 05:41:03;;;;;;;;;;;;;;;20.11;43.17;99628.72;4433588;32;31989;-95
2022/10/26 05:43:30;;;;;;;;;;;;;;;20.13;43.15;99628.69;4455204;32;34710;-96
2022/10/26 05:45:58;;;;;;;;;;;;;;;20.13;42.84;99637.47;4440516;32;34253;-96
2022/10/26 05:48:25;;;;;;;;;;;;;;;20.17;42.89;99633.00;4453636;32;34881;-96
2022/10/26 05:50:54;;;;;;;;;;;;;;;20.02;43.03;99638.56;4456284;32;32617;-95
2022/10/26 05:53:21;;;;;;;;;;;;;;;19.58;43.91;99640.16;4468763;32;34953;-95
2022/10/26 05:55:49;;;;;;;;;;;;;;;19.94;43.31;99641.34;4467906;32;33951;-95
2022/10/26 05:58:16;;;;;;;;;;;;;;;20.01;43.16;99632.44;4462937;32;33890;-96
2022/10/26 06:00:50;;;;;;;;;;;;;;;20.15;42.82;99647.94;4453509;32;32931;-95
2022/10/26 06:03:57;;;;;;;;;;;;;;;20.11;42.97;99643.66;4453734;32;33007;-95
2022/10/26 06:06:24;;;;;;;;;;;;;;;19.91;43.06;99642.25;4418842;32;34226;-95
2022/10/26 06:08:52;;;;;;;;;;;;;;;19.66;43.59;99648.81;4393350;32;33322;-95
2022/10/26 06:11:20;;;;;;;;;;;;;;;19.63;43.86;99648.88;4416042;32;32956;-94
2022/10/26 06:13:47;;;;;;;;;;;;;;;19.92;43.18;99649.22;4440528;32;33461;-96
2022/10/26 06:16:27;;;;;;;;;;;;;;;19.99;43.09;99652.63;4428407;32;33299;-95
2022/10/26 06:18:55;;;;;;;;;;;;;;;19.89;43.50;99662.47;4453485;32;34244;-96
2022/10/26 06:21:31;;;;;;;;;;;;;;;19.59;44.95;99668.22;4441704;32;32016;-95
2022/10/26 06:24:04;;;;;;;;;;;;;;;19.59;45.08;99669.06;4453420;32;34204;-93
2022/10/26 06:26:37;;;;;;;;;;;;;;;19.96;43.98;99672.87;4453408;32;34170;-95
2022/10/26 06:29:04;;;;;;;;;;;;;;;19.23;45.92;99673.13;4479711;32;34883;-94
2022/10/26 06:31:32;;;;;;;;;;;;;;;19.10;46.60;99672.44;4467305;32;33518;-94
2022/10/26 06:33:59;;;;;;;;;;;;;;;19.52;45.51;99675.31;4453521;32;33969;-94
2022/10/26 06:36:27;;;;;;;;;;;;;;;19.87;44.48;99677.41;4427434;32;33156;-94
2022/10/26 06:38:57;;;;;;;;;;;;;;;19.93;44.40;99679.06;4440503;32;33689;-95
2022/10/26 06:41:24;;;;;;;;;;;;;;;20.04;44.13;99677.12;4438880;32;33397;-94
2022/10/26 06:43:52;;;;;;;;;;;;;;;20.12;43.84;99677.84;4427706;32;33955;-94
2022/10/26 06:46:36;;;;;;;;;;;;;;;20.25;43.84;99680.25;4453279;32;34575;-95
2022/10/26 06:49:06;;;;;;;;;;;;;;;20.23;44.01;99680.31;4453127;32;34755;-94
2022/10/26 06:51:35;;;;;;;;;;;;;;;20.20;44.06;99682.13;4439107;32;33094;-92
2022/10/26 06:54:05;;;;;;;;;;;;;;;20.26;43.88;99682.84;4440744;32;33499;-95
2022/10/26 06:56:32;;;;;;;;;;;;;;;20.22;43.98;99680.31;4438060;32;34378;-94
2022/10/26 06:59:02;;;;;;;;;;;;;;;20.05;44.52;99685.88;4411990;32;34097;-93
2022/10/26 07:01:33;;;;;;;;;;;;;;;20.13;44.58;99686.63;4446486;32;31846;-94
2022/10/26 07:04:00;;;;;;;;;;;;;;;20.12;44.89;99692.78;4446403;32;34331;-93
2022/10/26 07:06:27;;;;;;;;;;;;;;;20.14;45.05;99690.97;4451988;32;34087;-94
2022/10/26 07:08:55;;;;;;;;;;;;;;;19.65;46.42;99686.53;4453596;32;33282;-94
2022/10/26 07:11:22;;;;;;;;;;;;;;;19.32;47.52;99688.78;4427570;32;31828;-95
2022/10/26 07:13:50;;;;;;;;;;;;;;;19.30;47.85;99684.41;4440175;32;32933;-96
2022/10/26 07:16:17;;;;;;;;;;;;;;;19.23;48.47;99691.50;4446718;32;35017;-94
2022/10/26 07:18:45;;;;;;;;;;;;;;;19.25;48.60;99691.50;4425503;32;33621;-94
2022/10/26 07:21:12;;;;;;;;;;;;;;;19.44;48.51;99692.97;4438407;32;32181;-95
2022/10/26 07:23:39;;;;;;;;;;;;;;;19.48;48.94;99699.06;4412646;32;33601;-95
2022/10/26 07:26:07;;;;;;;;;;;;;;;19.60;48.87;99698.88;4422595;32;33145;-94
2022/10/26 07:28:35;;;;;;;;;;;;;;;19.55;49.56;99705.97;4414065;32;34416;-95
2022/10/26 07:31:04;;;;;;;;;;;;;;;19.73;49.42;99700.44;4445183;32;32478;-95
2022/10/26 07:33:31;;;;;;;;;;;;;;;19.47;50.18;99713.09;4451288;32;34259;-96
2022/10/26 07:36:04;;;;;;;;;;;;;;;19.55;49.48;99711.22;4440771;32;33088;-95
2022/10/26 07:38:31;;;;;;;;;;;;;;;19.95;48.50;99705.34;4452842;32;33173;-93
2022/10/26 07:40:58;;;;;;;;;;;;;;;20.01;48.54;99702.63;4452538;32;33715;-95
2022/10/26 07:43:26;;;;;;;;;;;;;;;19.81;49.34;99711.72;4452909;32;33068;-95
2022/10/26 07:45:53;;;;;;;;;;;;;;;19.92;49.24;99707.12;4452749;32;33750;-94
2022/10/26 07:48:20;;;;;;;;;;;;;;;19.83;49.71;99712.56;4439855;32;33435;-94
2022/10/26 07:50:48;;;;;;;;;;;;;;;19.01;51.85;99706.69;4429356;32;32996;-95
2022/10/26 07:53:15;;;;;;;;;;;;;;;19.29;51.39;99699.31;4441879;32;33344;-96
2022/10/26 07:55:43;;;;;;;;;;;;;;;19.53;50.67;99702.47;4429013;32;33543;-95
2022/10/26 07:58:10;;;;;;;;;;;;;;;19.60;50.89;99704.13;4452115;32;34081;-95
2022/10/26 08:00:37;;;;;;;;;;;;;;;19.65;50.81;99703.19;4453890;32;33339;-95
2022/10/26 08:03:05;;;;;;;;;;;;;;;19.00;52.16;99706.72;4439330;32;34982;-95
2022/10/26 08:05:34;;;;;;;;;;;;;;;19.80;50.38;99707.34;4439148;32;34347;-96
2022/10/26 08:08:01;;;;;;;;;;;;;;;19.37;51.33;99710.59;4438808;32;33339;-94
2022/10/26 08:10:29;;;;;;;;;;;;;;;19.42;51.02;99703.50;4439096;32;33153;-95
2022/10/26 08:12:56;;;;;;;;;;;;;;;19.92;49.89;99712.37;4439110;32;33999;-94
2022/10/26 08:15:23;;;;;;;;;;;;;;;20.16;48.88;99710.25;4438875;32;34365;-93
2022/10/26 08:17:50;;;;;;;;;;;;;;;19.86;49.17;99717.78;4439035;32;34810;-96
2022/10/26 08:20:18;;;;;;;;;;;;;;;19.41;49.87;99714.06;4438976;32;32517;-96
2022/10/26 08:22:45;;;;;;;;;;;;;;;19.25;49.75;99715.16;4426121;32;34632;-94
2022/10/26 08:25:13;;;;;;;;;;;;;;;19.37;49.22;99722.88;4426131;32;33550;-95
2022/10/26 08:27:47;;;;;;;;;;;;;;;18.01;52.80;99729.63;4439828;32;34077;-96
2022/10/26 08:30:15;;;;;;;;;;;;;;;18.99;50.28;99720.75;4427946;32;32049;-96
2022/10/26 08:32:42;;;;;;;;;;;;;;;19.00;50.52;99717.25;4438663;32;33133;-96
2022/10/26 08:35:09;;;;;;;;;;;;;;;19.25;49.67;99718.66;4441886;32;34055;-95
2022/10/26 08:37:37;;;;;;;;;;;;;;;18.68;51.53;99721.09;4428724;32;33199;-95
2022/10/26 08:40:04;;;;;;;;;;;;;;;19.63;49.11;99720.78;4427377;32;32986;-96
2022/10/26 08:42:33;;;;;;;;;;;;;;;19.31;50.15;99717.69;4440290;32;33334;-96
2022/10/26 08:45:01;;;;;;;;;;;;;;;19.41;50.32;99725.44;4441451;32;33363;-95
2022/10/26 08:47:30;;;;;;;;;;;;;;;18.46;52.70;99729.19;4468391;32;34102;-94
2022/10/26 08:49:59;;;;;;;;;;;;;;;18.97;51.80;99733.91;4428829;32;33106;-95
2022/10/26 08:52:31;;;;;;;;;;;;;;;19.64;49.92;99738.28;4427228;32;33023;-95
2022/10/26 08:54:58;;;;;;;;;;;;;;;19.61;50.24;99737.44;4434612;32;34695;-95
2022/10/26 08:57:27;;;;;;;;;;;;;;;19.04;52.00;99743.47;4425932;32;33408;-96
2022/10/26 08:59:55;;;;;;;;;;;;;;;19.37;51.34;99734.25;4438013;32;33957;-95
2022/10/26 09:02:23;;;;;;;;;;;;;;;19.57;51.48;99741.00;4439354;32;32850;-95
2022/10/26 09:04:51;;;;;;;;;;;;;;;19.14;52.91;99741.59;4454111;32;33993;-96
2022/10/26 09:07:21;;;;;;;;;;;;;;;19.22;53.29;99741.50;4441333;32;33960;-95
2022/10/26 09:10:07;;;;;;;;;;;;;;;18.47;55.24;99744.06;4454399;32;34028;-93
2022/10/26 09:12:38;;;;;;;;;;;;;;;19.17;54.09;99736.31;4466564;32;34494;-95
2022/10/26 09:15:21;;;;;;;;;;;;;;;19.49;53.49;99738.47;4453820;32;34057;-96
2022/10/26 09:17:57;;;;;;;;;;;;;;;19.56;53.07;99734.87;4441518;32;34115;-95
2022/10/26 09:20:27;;;;;;;;;;;;;;;19.86;52.93;99738.81;4468366;32;33268;-96
2022/10/26 09:23:09;;;;;;;;;;;;;;;19.23;55.00;99740.59;4467900;32;34344;-96
2022/10/26 09:25:39;;;;;;;;;;;;;;;20.01;53.19;99750.88;4428859;32;33332;-95
2022/10/26 09:28:15;;;;;;;;;;;;;;;20.47;51.91;99757.97;4452592;32;33453;-96
2022/10/26 09:30:42;;;;;;;;;;;;;;;19.58;54.67;99759.38;4468128;32;34419;-95
2022/10/26 09:33:15;;;;;;;;;;;;;;;19.39;54.72;99763.16;4454058;32;34286;-95
2022/10/26 09:35:43;;;;;;;;;;;;;;;18.73;56.43;99776.22;4453909;32;35184;-95
2022/10/26 09:38:23;;;;;;;;;;;;;;;18.83;55.96;99775.25;4441086;32;33264;-95
2022/10/26 09:40:54;;;;;;;;;;;;;;;18.96;55.95;99775.06;4428411;32;31873;-95
2022/10/26 09:43:29;;;;;;;;;;;;;;;18.58;57.08;99764.97;4441095;32;33649;-95
2022/10/26 09:45:56;;;;;;;;;;;;;;;19.55;53.93;99761.19;4453609;32;34412;-95
2022/10/26 09:48:30;;;;;;;;;;;;;;;19.92;53.00;99759.75;4453534;32;33643;-95
2022/10/26 09:50:59;;;;;;;;;;;;;;;19.74;53.40;99761.84;4467999;32;33122;-94
2022/10/26 09:53:31;;;;;;;;;;;;;;;19.49;53.62;99779.69;4427153;32;33264;-94
2022/10/26 09:56:05;;;;;;;;;;;;;;;19.32;53.88;99778.16;4441054;32;32609;-96
2022/10/26 09:58:40;;;;;;;;;;;;;;;19.73;52.66;99776.72;4449563;32;34259;-95
2022/10/26 10:01:19;;;;;;;;;;;;;;;19.59;53.78;99781.31;4453022;32;32883;-95
2022/10/26 10:03:46;;;;;;;;;;;;;;;20.34;52.07;99778.41;4441166;32;33992;-93
2022/10/26 10:06:15;;;;;;;;;;;;;;;20.40;51.45;99775.66;4440904;32;33268;-93
2022/10/26 10:08:42;;;;;;;;;;;;;;;20.37;51.66;99772.19;4441267;32;34226;-94
2022/10/26 10:11:11;;;;;;;;;;;;;;;20.71;50.50;99777.75;4453841;32;34240;-95
2022/10/26 10:13:39;;;;;;;;;;;;;;;20.44;51.35;99770.31;4453852;32;34866;-95
2022/10/26 10:16:22;;;;;;;;;;;;;;;20.63;50.80;99775.25;4441017;32;35181;-95
2022/10/26 10:19:09;;;;;;;;;;;;;;;20.39;51.44;99779.19;4467949;32;34144;-95
2022/10/26 10:21:37;;;;;;;;;;;;;;;20.82;50.17;99775.78;4440834;32;33595;-96
2022/10/26 10:24:24;;;;;;;;;;;;;;;20.97;49.45;99779.03;4453665;32;33925;-96
2022/10/26 10:26:55;;;;;;;;;;;;;;;20.33;51.62;99778.41;4440893;32;33770;-95
2022/10/26 10:29:33;;;;;;;;;;;;;;;20.36;51.55;99776.59;4440887;32;34143;-95
2022/10/26 10:32:01;;;;;;;;;;;;;;;20.17;52.02;99772.53;4452975;32;34043;-96
2022/10/26 10:34:29;;;;;;;;;;;;;;;20.21;51.85;99768.97;4466196;32;33055;-94
2022/10/26 10:36:56;;;;;;;;;;;;;;;20.82;50.90;99772.28;4440826;32;34396;-96
2022/10/26 10:39:34;;;;;;;;;;;;;;;21.12;50.24;99769.03;4427933;32;33956;-95
2022/10/26 10:42:02;;;;;;;;;;;;;;;20.40;51.54;99772.16;4467553;32;34083;-96
2022/10/26 10:44:30;;;;;;;;;;;;;;;20.78;51.21;99767.97;4438225;32;33116;-96
2022/10/26 10:47:04;;;;;;;;;;;;;;;21.12;50.35;99768.16;4467352;32;34016;-95
2022/10/26 10:49:31;;;;;;;;;;;;;;;21.85;48.33;99760.41;4440535;32;34512;-94
2022/10/26 10:51:59;;;;;;;;;;;;;;;21.45;49.33;99755.22;4453242;32;31923;-96
2022/10/26 10:54:28;;;;;;;;;;;;;;;20.89;50.92;99761.59;4453492;32;32566;-94
2022/10/26 10:57:06;;;;;;;;;;;;;;;21.62;49.41;99759.19;4467506;32;34964;-94
2022/10/26 10:59:39;;;;;;;;;;;;;;;21.07;50.61;99759.50;4450900;32;33959;-95
2022/10/26 11:02:19;;;;;;;;;;;;;;;21.74;49.15;99758.03;4428375;32;33431;-93
2022/10/26 11:04:58;;;;;;;;;;;;;;;21.38;50.12;99757.09;4446895;32;34311;-94
2022/10/26 11:07:26;;;;;;;;;;;;;;;20.45;52.69;99764.16;4466077;32;33637;-96
2022/10/26 11:09:53;;;;;;;;;;;;;;;20.99;51.55;99758.78;4453175;32;34656;-96
2022/10/26 11:12:20;;;;;;;;;;;;;;;20.84;51.55;99752.91;4453108;32;32527;-95
2022/10/26 11:14:49;;;;;;;;;;;;;;;20.74;51.92;99751.34;4453172;32;32935;-94
2022/10/26 11:17:18;;;;;;;;;;;;;;;20.44;52.75;99747.50;4440357;32;34210;-95
2022/10/26 11:19:51;;;;;;;;;;;;;;;20.75;52.35;99752.22;4452521;32;33832;-95
2022/10/26 11:22:26;;;;;;;;;;;;;;;21.48;50.80;99739.28;4467152;32;33426;-95
2022/10/26 11:25:04;;;;;;;;;;;;;;;21.61;50.41;99746.03;4439051;32;33924;-95
2022/10/26 11:27:32;;;;;;;;;;;;;;;21.43;50.34;99746.44;4440192;32;35091;-94
2022/10/26 11:30:04;;;;;;;;;;;;;;;20.95;51.77;99746.53;4452733;32;33959;-94
2022/10/26 11:32:33;;;;;;;;;;;;;;;21.51;50.18;99741.84;4441874;32;32096;-94
2022/10/26 11:35:21;;;;;;;;;;;;;;;20.75;52.31;99747.81;4451334;32;34113;-95
2022/10/26 11:37:48;;;;;;;;;;;;;;;21.42;50.66;99734.16;4437245;32;33186;-95
2022/10/26 11:40:34;;;;;;;;;;;;;;;21.50;50.39;99735.72;4437312;32;32477;-95
2022/10/26 11:43:08;;;;;;;;;;;;;;;20.86;52.38;99731.78;4424633;32;32354;-95
2022/10/26 11:45:36;;;;;;;;;;;;;;;21.95;49.96;99738.19;4437350;32;33487;-95
2022/10/26 11:48:15;;;;;;;;;;;;;;;20.70;53.24;99736.50;4412346;32;34294;-94
2022/10/26 11:50:43;;;;;;;;;;;;;;;21.10;52.03;99733.03;4437062;32;33229;-95
2022/10/26 11:53:12;;;;;;;;;;;;;;;21.45;51.31;99731.47;4437103;32;33670;-94
2022/10/26 11:55:39;;;;;;;;;;;;;;;21.26;51.60;99723.91;4424481;32;33985;-94
2022/10/26 11:58:09;;;;;;;;;;;;;;;21.44;51.46;99741.16;4424511;32;34541;-93
2022/10/26 12:01:03;;;;;;;;;;;;;;;21.79;51.49;99735.06;4437542;32;33417;-95
2022/10/26 12:03:31;;;;;;;;;;;;;;;20.79;52.91;99733.66;4423127;32;32559;-94
2022/10/26 12:05:58;;;;;;;;;;;;;;;20.78;53.50;99736.34;4424103;32;34091;-94
2022/10/26 12:08:26;;;;;;;;;;;;;;;21.64;50.67;99730.12;4411459;32;33431;-95
2022/10/26 12:10:57;;;;;;;;;;;;;;;21.90;50.25;99729.50;4435326;32;32902;-94
2022/10/26 12:13:43;;;;;;;;;;;;;;;21.95;49.83;99729.41;4439498;32;34145;-94
2022/10/26 12:16:34;;;;;;;;;;;;;;;21.84;50.29;99738.44;4466216;32;34076;-94
2022/10/26 12:19:03;;;;;;;;;;;;;;;22.26;49.17;99730.38;4452152;32;33353;-95
2022/10/26 12:21:31;;;;;;;;;;;;;;;22.60;48.53;99726.84;4452191;32;34415;-96
2022/10/26 12:23:59;;;;;;;;;;;;;;;22.16;48.99;99731.53;4426412;32;32149;-95
2022/10/26 12:26:26;;;;;;;;;;;;;;;21.93;49.96;99731.19;4439618;32;34175;-95
2022/10/26 12:29:00;;;;;;;;;;;;;;;22.10;49.64;99729.00;4452040;32;33680;-94
2022/10/26 12:31:36;;;;;;;;;;;;;;;22.37;48.85;99731.88;4457976;32;33745;-94
2022/10/26 12:34:04;;;;;;;;;;;;;;;22.11;49.69;99728.97;4436767;32;33311;-95
2022/10/26 12:36:50;;;;;;;;;;;;;;;22.32;49.13;99724.94;4438781;32;33835;-96
2022/10/26 12:39:34;;;;;;;;;;;;;;;22.44;48.88;99725.53;4438831;32;34152;-96
2022/10/26 12:42:04;;;;;;;;;;;;;;;22.86;47.95;99717.31;4439523;32;34295;-94
2022/10/26 12:44:40;;;;;;;;;;;;;;;22.77;48.34;99721.97;4426922;32;31889;-94
2022/10/26 12:47:08;;;;;;;;;;;;;;;23.38;46.57;99713.16;4439039;32;33183;-96
2022/10/26 12:49:54;;;;;;;;;;;;;;;22.96;47.56;99705.59;4413372;32;33445;-95
2022/10/26 12:52:25;;;;;;;;;;;;;;;23.01;47.32;99715.12;4446425;32;32824;-96
2022/10/26 12:55:11;;;;;;;;;;;;;;;23.43;46.13;99712.09;4454356;32;34198;-94
2022/10/26 12:57:57;;;;;;;;;;;;;;;23.37;45.90;99714.91;4453957;32;34191;-94
2022/10/26 13:00:24;;;;;;;;;;;;;;;23.08;46.76;99718.47;4479828;32;34486;-95
2022/10/26 13:02:52;;;;;;;;;;;;;;;23.36;46.40;99709.69;4446855;32;33985;-95
2022/10/26 13:05:25;;;;;;;;;;;;;;;23.59;45.48;99712.47;4438430;32;32498;-95